sensor_id;sensor_type;location;lat;lon;timestamp;P1;durP1;ratioP1;P2;durP2;ratioP2
7029;SDS011;3556;53.500;10.176;2023-06-26T00:00:17;13.03;;;11.83;;
7029;SDS011;3556;53.500;10.176;2023-06-26T00:02:43;12.20;;;10.90;;
7029;SDS011;3556;53.500;10.176;2023-06-26T00:05:09;13.30;;;11.57;;
7029;SDS011;3556;53.500;10.176;2023-06-26T00:07:35;14.23;;;11.53;;
7029;SDS011;3556;53.500;10.176;2023-06-26T00:10:02;12.73;;;11.50;;
7029;SDS011;3556;53.500;10.176;2023-06-26T00:12:29;13.30;;;12.10;;
7029;SDS011;3556;53.500;10.176;2023-06-26T00:14:55;12.77;;;11.30;;
7029;SDS011;3556;53.500;10.176;2023-06-26T00:17:21;11.80;;;10.80;;
7029;SDS011;3556;53.500;10.176;2023-06-26T00:19:47;12.80;;;11.53;;
7029;SDS011;3556;53.500;10.176;2023-06-26T00:22:13;12.33;;;11.00;;
7029;SDS011;3556;53.500;10.176;2023-06-26T00:24:39;12.50;;;11.40;;
7029;SDS011;3556;53.500;10.176;2023-06-26T00:27:05;12.17;;;11.00;;
7029;SDS011;3556;53.500;10.176;2023-06-26T00:29:31;11.53;;;10.53;;
7029;SDS011;3556;53.500;10.176;2023-06-26T00:31:56;13.30;;;11.30;;
7029;SDS011;3556;53.500;10.176;2023-06-26T00:34:22;12.60;;;11.40;;
7029;SDS011;3556;53.500;10.176;2023-06-26T00:36:48;12.90;;;11.70;;
7029;SDS011;3556;53.500;10.176;2023-06-26T00:39:13;12.77;;;11.57;;
7029;SDS011;3556;53.500;10.176;2023-06-26T00:41:39;12.97;;;11.63;;
7029;SDS011;3556;53.500;10.176;2023-06-26T00:44:05;13.10;;;11.90;;
7029;SDS011;3556;53.500;10.176;2023-06-26T00:46:31;13.43;;;12.00;;
7029;SDS011;3556;53.500;10.176;2023-06-26T00:48:58;14.97;;;12.10;;
7029;SDS011;3556;53.500;10.176;2023-06-26T00:51:26;13.23;;;12.03;;
7029;SDS011;3556;53.500;10.176;2023-06-26T00:53:52;13.10;;;11.93;;
7029;SDS011;3556;53.500;10.176;2023-06-26T00:56:19;14.87;;;11.03;;
7029;SDS011;3556;53.500;10.176;2023-06-26T00:58:45;14.43;;;13.03;;
7029;SDS011;3556;53.500;10.176;2023-06-26T01:01:11;12.00;;;10.90;;
7029;SDS011;3556;53.500;10.176;2023-06-26T01:03:48;12.60;;;11.40;;
7029;SDS011;3556;53.500;10.176;2023-06-26T01:06:18;13.33;;;11.20;;
7029;SDS011;3556;53.500;10.176;2023-06-26T01:08:46;12.27;;;10.97;;
7029;SDS011;3556;53.500;10.176;2023-06-26T01:11:13;12.90;;;11.70;;
7029;SDS011;3556;53.500;10.176;2023-06-26T01:13:40;12.83;;;11.63;;
7029;SDS011;3556;53.500;10.176;2023-06-26T01:16:08;13.00;;;11.80;;
7029;SDS011;3556;53.500;10.176;2023-06-26T01:18:35;13.80;;;11.43;;
7029;SDS011;3556;53.500;10.176;2023-06-26T01:21:02;12.67;;;11.40;;
7029;SDS011;3556;53.500;10.176;2023-06-26T01:28:33;17.43;;;11.67;;
7029;SDS011;3556;53.500;10.176;2023-06-26T01:31:01;13.43;;;12.00;;
7029;SDS011;3556;53.500;10.176;2023-06-26T01:33:29;13.77;;;12.50;;
7029;SDS011;3556;53.500;10.176;2023-06-26T01:35:55;11.90;;;10.80;;
7029;SDS011;3556;53.500;10.176;2023-06-26T01:38:21;12.70;;;11.57;;
7029;SDS011;3556;53.500;10.176;2023-06-26T01:40:50;12.30;;;11.07;;
7029;SDS011;3556;53.500;10.176;2023-06-26T01:43:24;11.00;;;10.00;;
7029;SDS011;3556;53.500;10.176;2023-06-26T01:51:46;13.50;;;12.20;;
7029;SDS011;3556;53.500;10.176;2023-06-26T01:54:18;14.73;;;13.23;;
7029;SDS011;3556;53.500;10.176;2023-06-26T01:56:49;12.20;;;11.10;;
7029;SDS011;3556;53.500;10.176;2023-06-26T01:59:17;13.90;;;10.90;;
7029;SDS011;3556;53.500;10.176;2023-06-26T02:01:45;14.20;;;11.20;;
7029;SDS011;3556;53.500;10.176;2023-06-26T02:04:12;12.20;;;11.00;;
7029;SDS011;3556;53.500;10.176;2023-06-26T02:06:38;15.00;;;10.80;;
7029;SDS011;3556;53.500;10.176;2023-06-26T02:09:03;11.93;;;10.73;;
7029;SDS011;3556;53.500;10.176;2023-06-26T02:11:29;12.73;;;11.43;;
7029;SDS011;3556;53.500;10.176;2023-06-26T02:13:55;11.87;;;10.77;;
7029;SDS011;3556;53.500;10.176;2023-06-26T02:16:20;15.03;;;11.33;;
7029;SDS011;3556;53.500;10.176;2023-06-26T02:18:46;12.10;;;11.00;;
7029;SDS011;3556;53.500;10.176;2023-06-26T02:21:13;13.00;;;11.70;;
7029;SDS011;3556;53.500;10.176;2023-06-26T02:23:38;12.57;;;11.20;;
7029;SDS011;3556;53.500;10.176;2023-06-26T02:26:04;12.47;;;11.20;;
7029;SDS011;3556;53.500;10.176;2023-06-26T02:28:30;12.17;;;10.97;;
7029;SDS011;3556;53.500;10.176;2023-06-26T02:30:56;17.13;;;11.03;;
7029;SDS011;3556;53.500;10.176;2023-06-26T02:33:22;11.53;;;10.23;;
7029;SDS011;3556;53.500;10.176;2023-06-26T02:35:47;12.13;;;10.93;;
7029;SDS011;3556;53.500;10.176;2023-06-26T02:38:15;12.13;;;10.93;;
7029;SDS011;3556;53.500;10.176;2023-06-26T02:40:41;11.90;;;10.77;;
7029;SDS011;3556;53.500;10.176;2023-06-26T02:43:06;12.00;;;10.90;;
7029;SDS011;3556;53.500;10.176;2023-06-26T02:45:32;11.47;;;10.27;;
7029;SDS011;3556;53.500;10.176;2023-06-26T02:47:57;15.83;;;11.00;;
7029;SDS011;3556;53.500;10.176;2023-06-26T02:50:23;12.10;;;10.90;;
7029;SDS011;3556;53.500;10.176;2023-06-26T02:52:49;12.03;;;10.80;;
7029;SDS011;3556;53.500;10.176;2023-06-26T02:55:17;11.30;;;10.23;;
7029;SDS011;3556;53.500;10.176;2023-06-26T02:57:44;13.27;;;9.87;;
7029;SDS011;3556;53.500;10.176;2023-06-26T03:00:10;13.67;;;10.10;;
7029;SDS011;3556;53.500;10.176;2023-06-26T03:02:36;12.20;;;10.80;;
7029;SDS011;3556;53.500;10.176;2023-06-26T03:05:02;13.50;;;11.90;;
7029;SDS011;3556;53.500;10.176;2023-06-26T03:07:29;11.10;;;10.10;;
7029;SDS011;3556;53.500;10.176;2023-06-26T03:09:55;11.30;;;10.07;;
7029;SDS011;3556;53.500;10.176;2023-06-26T03:12:20;12.17;;;10.73;;
7029;SDS011;3556;53.500;10.176;2023-06-26T03:14:46;16.70;;;10.30;;
7029;SDS011;3556;53.500;10.176;2023-06-26T03:17:11;12.33;;;11.03;;
7029;SDS011;3556;53.500;10.176;2023-06-26T03:19:37;11.40;;;10.30;;
7029;SDS011;3556;53.500;10.176;2023-06-26T03:22:03;13.90;;;11.03;;
7029;SDS011;3556;53.500;10.176;2023-06-26T03:24:29;11.07;;;9.97;;
7029;SDS011;3556;53.500;10.176;2023-06-26T03:26:54;12.50;;;10.87;;
7029;SDS011;3556;53.500;10.176;2023-06-26T03:29:20;11.30;;;10.20;;
7029;SDS011;3556;53.500;10.176;2023-06-26T03:31:45;11.50;;;10.30;;
7029;SDS011;3556;53.500;10.176;2023-06-26T03:34:11;10.30;;;9.30;;
7029;SDS011;3556;53.500;10.176;2023-06-26T03:36:37;11.50;;;10.40;;
7029;SDS011;3556;53.500;10.176;2023-06-26T03:39:03;11.90;;;9.90;;
7029;SDS011;3556;53.500;10.176;2023-06-26T03:41:29;12.17;;;10.87;;
7029;SDS011;3556;53.500;10.176;2023-06-26T03:43:54;11.43;;;10.10;;
7029;SDS011;3556;53.500;10.176;2023-06-26T03:46:21;12.50;;;11.20;;
7029;SDS011;3556;53.500;10.176;2023-06-26T03:48:47;11.27;;;10.10;;
7029;SDS011;3556;53.500;10.176;2023-06-26T03:51:13;13.70;;;11.00;;
7029;SDS011;3556;53.500;10.176;2023-06-26T03:53:39;11.97;;;10.40;;
7029;SDS011;3556;53.500;10.176;2023-06-26T03:56:04;12.50;;;11.20;;
7029;SDS011;3556;53.500;10.176;2023-06-26T03:58:30;11.80;;;10.60;;
7029;SDS011;3556;53.500;10.176;2023-06-26T04:00:56;11.60;;;10.40;;
7029;SDS011;3556;53.500;10.176;2023-06-26T04:03:22;12.10;;;10.47;;
7029;SDS011;3556;53.500;10.176;2023-06-26T04:05:48;13.37;;;10.60;;
7029;SDS011;3556;53.500;10.176;2023-06-26T04:08:14;11.37;;;10.27;;
7029;SDS011;3556;53.500;10.176;2023-06-26T04:10:39;11.70;;;10.60;;
7029;SDS011;3556;53.500;10.176;2023-06-26T04:13:05;12.77;;;10.87;;
7029;SDS011;3556;53.500;10.176;2023-06-26T04:15:31;12.47;;;11.17;;
7029;SDS011;3556;53.500;10.176;2023-06-26T04:17:56;11.23;;;10.17;;
7029;SDS011;3556;53.500;10.176;2023-06-26T04:20:22;11.50;;;10.00;;
7029;SDS011;3556;53.500;10.176;2023-06-26T04:22:47;12.03;;;10.00;;
7029;SDS011;3556;53.500;10.176;2023-06-26T04:25:13;14.73;;;10.90;;
7029;SDS011;3556;53.500;10.176;2023-06-26T04:27:39;12.03;;;10.40;;
7029;SDS011;3556;53.500;10.176;2023-06-26T04:30:04;11.37;;;10.20;;
7029;SDS011;3556;53.500;10.176;2023-06-26T04:32:31;12.03;;;10.63;;
7029;SDS011;3556;53.500;10.176;2023-06-26T04:34:56;11.57;;;10.37;;
7029;SDS011;3556;53.500;10.176;2023-06-26T04:37:22;11.00;;;10.00;;
7029;SDS011;3556;53.500;10.176;2023-06-26T04:39:49;12.00;;;10.80;;
7029;SDS011;3556;53.500;10.176;2023-06-26T04:42:15;12.33;;;11.03;;
7029;SDS011;3556;53.500;10.176;2023-06-26T04:44:41;11.17;;;10.17;;
7029;SDS011;3556;53.500;10.176;2023-06-26T04:47:07;12.30;;;11.20;;
7029;SDS011;3556;53.500;10.176;2023-06-26T04:49:33;16.83;;;11.43;;
7029;SDS011;3556;53.500;10.176;2023-06-26T04:51:59;11.20;;;10.10;;
7029;SDS011;3556;53.500;10.176;2023-06-26T04:54:25;12.37;;;11.07;;
7029;SDS011;3556;53.500;10.176;2023-06-26T04:56:51;11.50;;;10.30;;
7029;SDS011;3556;53.500;10.176;2023-06-26T04:59:16;17.40;;;11.00;;
7029;SDS011;3556;53.500;10.176;2023-06-26T05:01:42;10.13;;;9.00;;
7029;SDS011;3556;53.500;10.176;2023-06-26T05:04:13;13.73;;;10.60;;
7029;SDS011;3556;53.500;10.176;2023-06-26T05:06:40;12.40;;;10.03;;
7029;SDS011;3556;53.500;10.176;2023-06-26T05:09:06;11.30;;;9.73;;
7029;SDS011;3556;53.500;10.176;2023-06-26T05:11:31;11.23;;;10.13;;
7029;SDS011;3556;53.500;10.176;2023-06-26T05:13:57;10.50;;;9.50;;
7029;SDS011;3556;53.500;10.176;2023-06-26T05:16:23;11.40;;;10.30;;
7029;SDS011;3556;53.500;10.176;2023-06-26T05:18:48;10.53;;;9.43;;
7029;SDS011;3556;53.500;10.176;2023-06-26T05:21:14;11.33;;;10.27;;
7029;SDS011;3556;53.500;10.176;2023-06-26T05:23:40;11.77;;;10.53;;
7029;SDS011;3556;53.500;10.176;2023-06-26T05:26:09;12.80;;;9.97;;
7029;SDS011;3556;53.500;10.176;2023-06-26T05:28:35;10.40;;;9.40;;
7029;SDS011;3556;53.500;10.176;2023-06-26T05:31:02;11.43;;;10.20;;
7029;SDS011;3556;53.500;10.176;2023-06-26T05:33:30;10.10;;;9.10;;
7029;SDS011;3556;53.500;10.176;2023-06-26T05:35:56;10.53;;;9.40;;
7029;SDS011;3556;53.500;10.176;2023-06-26T05:38:23;10.27;;;9.27;;
7029;SDS011;3556;53.500;10.176;2023-06-26T05:40:49;11.03;;;9.87;;
7029;SDS011;3556;53.500;10.176;2023-06-26T05:43:15;10.50;;;9.40;;
7029;SDS011;3556;53.500;10.176;2023-06-26T05:45:41;11.00;;;9.90;;
7029;SDS011;3556;53.500;10.176;2023-06-26T05:48:07;10.60;;;9.50;;
7029;SDS011;3556;53.500;10.176;2023-06-26T05:50:33;10.60;;;9.57;;
7029;SDS011;3556;53.500;10.176;2023-06-26T05:52:59;10.63;;;9.60;;
7029;SDS011;3556;53.500;10.176;2023-06-26T05:55:28;10.70;;;9.60;;
7029;SDS011;3556;53.500;10.176;2023-06-26T05:57:53;14.27;;;9.90;;
7029;SDS011;3556;53.500;10.176;2023-06-26T06:00:21;9.70;;;8.80;;
7029;SDS011;3556;53.500;10.176;2023-06-26T06:02:48;10.70;;;9.70;;
7029;SDS011;3556;53.500;10.176;2023-06-26T06:05:13;9.87;;;8.87;;
7029;SDS011;3556;53.500;10.176;2023-06-26T06:07:39;10.17;;;9.17;;
7029;SDS011;3556;53.500;10.176;2023-06-26T06:10:05;10.27;;;9.37;;
7029;SDS011;3556;53.500;10.176;2023-06-26T06:12:30;15.27;;;10.87;;
7029;SDS011;3556;53.500;10.176;2023-06-26T06:14:56;10.20;;;9.30;;
7029;SDS011;3556;53.500;10.176;2023-06-26T06:17:22;10.90;;;9.80;;
7029;SDS011;3556;53.500;10.176;2023-06-26T06:19:48;12.17;;;9.40;;
7029;SDS011;3556;53.500;10.176;2023-06-26T06:22:14;10.47;;;9.47;;
7029;SDS011;3556;53.500;10.176;2023-06-26T06:24:41;13.90;;;10.70;;
7029;SDS011;3556;53.500;10.176;2023-06-26T06:27:07;10.63;;;9.53;;
7029;SDS011;3556;53.500;10.176;2023-06-26T06:29:32;9.90;;;9.00;;
7029;SDS011;3556;53.500;10.176;2023-06-26T06:31:58;9.87;;;8.87;;
7029;SDS011;3556;53.500;10.176;2023-06-26T06:34:24;11.63;;;8.80;;
7029;SDS011;3556;53.500;10.176;2023-06-26T06:36:49;11.17;;;9.83;;
7029;SDS011;3556;53.500;10.176;2023-06-26T06:39:15;10.53;;;9.43;;
7029;SDS011;3556;53.500;10.176;2023-06-26T06:41:41;9.70;;;8.90;;
7029;SDS011;3556;53.500;10.176;2023-06-26T06:44:06;9.07;;;8.37;;
7029;SDS011;3556;53.500;10.176;2023-06-26T06:46:32;9.47;;;8.57;;
7029;SDS011;3556;53.500;10.176;2023-06-26T06:48:58;9.60;;;8.73;;
7029;SDS011;3556;53.500;10.176;2023-06-26T06:51:25;9.03;;;8.13;;
7029;SDS011;3556;53.500;10.176;2023-06-26T06:53:50;10.30;;;9.30;;
7029;SDS011;3556;53.500;10.176;2023-06-26T06:56:16;8.77;;;8.07;;
7029;SDS011;3556;53.500;10.176;2023-06-26T06:58:42;10.03;;;8.90;;
7029;SDS011;3556;53.500;10.176;2023-06-26T07:01:08;8.50;;;7.80;;
7029;SDS011;3556;53.500;10.176;2023-06-26T07:03:34;9.17;;;8.27;;
7029;SDS011;3556;53.500;10.176;2023-06-26T07:06:00;9.60;;;8.70;;
7029;SDS011;3556;53.500;10.176;2023-06-26T07:08:26;9.33;;;8.50;;
7029;SDS011;3556;53.500;10.176;2023-06-26T07:10:51;10.50;;;9.10;;
7029;SDS011;3556;53.500;10.176;2023-06-26T07:13:17;9.20;;;8.40;;
7029;SDS011;3556;53.500;10.176;2023-06-26T07:15:43;8.90;;;8.00;;
7029;SDS011;3556;53.500;10.176;2023-06-26T07:18:10;9.50;;;8.60;;
7029;SDS011;3556;53.500;10.176;2023-06-26T07:20:35;9.47;;;8.60;;
7029;SDS011;3556;53.500;10.176;2023-06-26T07:23:01;8.63;;;7.83;;
7029;SDS011;3556;53.500;10.176;2023-06-26T07:25:26;9.93;;;8.90;;
7029;SDS011;3556;53.500;10.176;2023-06-26T07:27:52;8.83;;;8.13;;
7029;SDS011;3556;53.500;10.176;2023-06-26T07:30:18;8.73;;;7.80;;
7029;SDS011;3556;53.500;10.176;2023-06-26T07:32:44;10.80;;;8.70;;
7029;SDS011;3556;53.500;10.176;2023-06-26T07:35:09;10.13;;;9.10;;
7029;SDS011;3556;53.500;10.176;2023-06-26T07:37:35;9.73;;;8.80;;
7029;SDS011;3556;53.500;10.176;2023-06-26T07:40:01;8.70;;;7.70;;
7029;SDS011;3556;53.500;10.176;2023-06-26T07:42:27;15.00;;;8.73;;
7029;SDS011;3556;53.500;10.176;2023-06-26T07:44:53;9.87;;;8.87;;
7029;SDS011;3556;53.500;10.176;2023-06-26T07:47:18;11.57;;;8.70;;
7029;SDS011;3556;53.500;10.176;2023-06-26T07:49:44;9.37;;;8.50;;
7029;SDS011;3556;53.500;10.176;2023-06-26T07:52:09;11.87;;;9.10;;
7029;SDS011;3556;53.500;10.176;2023-06-26T07:54:36;9.40;;;8.50;;
7029;SDS011;3556;53.500;10.176;2023-06-26T07:57:03;9.90;;;8.43;;
7029;SDS011;3556;53.500;10.176;2023-06-26T07:59:33;9.87;;;8.97;;
7029;SDS011;3556;53.500;10.176;2023-06-26T08:01:59;13.67;;;8.60;;
7029;SDS011;3556;53.500;10.176;2023-06-26T08:04:26;8.37;;;7.70;;
7029;SDS011;3556;53.500;10.176;2023-06-26T08:06:56;28.47;;;9.10;;
7029;SDS011;3556;53.500;10.176;2023-06-26T08:09:23;9.50;;;8.27;;
7029;SDS011;3556;53.500;10.176;2023-06-26T08:11:50;8.90;;;8.20;;
7029;SDS011;3556;53.500;10.176;2023-06-26T08:14:16;10.33;;;8.50;;
7029;SDS011;3556;53.500;10.176;2023-06-26T08:16:43;13.63;;;9.03;;
7029;SDS011;3556;53.500;10.176;2023-06-26T08:19:09;9.43;;;8.63;;
7029;SDS011;3556;53.500;10.176;2023-06-26T08:21:36;9.53;;;8.20;;
7029;SDS011;3556;53.500;10.176;2023-06-26T08:24:01;9.80;;;9.00;;
7029;SDS011;3556;53.500;10.176;2023-06-26T08:26:27;9.07;;;8.27;;
7029;SDS011;3556;53.500;10.176;2023-06-26T08:28:53;11.47;;;8.63;;
7029;SDS011;3556;53.500;10.176;2023-06-26T08:31:19;10.00;;;8.57;;
7029;SDS011;3556;53.500;10.176;2023-06-26T08:33:45;9.50;;;8.60;;
7029;SDS011;3556;53.500;10.176;2023-06-26T08:36:11;8.50;;;7.70;;
7029;SDS011;3556;53.500;10.176;2023-06-26T08:38:37;9.13;;;8.33;;
7029;SDS011;3556;53.500;10.176;2023-06-26T08:41:05;9.57;;;8.53;;
7029;SDS011;3556;53.500;10.176;2023-06-26T08:43:31;10.00;;;9.03;;
7029;SDS011;3556;53.500;10.176;2023-06-26T08:45:57;9.73;;;8.93;;
7029;SDS011;3556;53.500;10.176;2023-06-26T08:48:23;11.00;;;9.47;;
7029;SDS011;3556;53.500;10.176;2023-06-26T08:50:49;9.60;;;8.70;;
7029;SDS011;3556;53.500;10.176;2023-06-26T08:56:14;9.63;;;8.63;;
7029;SDS011;3556;53.500;10.176;2023-06-26T08:58:42;10.03;;;8.40;;
7029;SDS011;3556;53.500;10.176;2023-06-26T09:01:08;8.83;;;8.03;;
7029;SDS011;3556;53.500;10.176;2023-06-26T09:03:34;10.33;;;9.43;;
7029;SDS011;3556;53.500;10.176;2023-06-26T09:06:00;9.93;;;8.93;;
7029;SDS011;3556;53.500;10.176;2023-06-26T09:08:26;10.27;;;9.27;;
7029;SDS011;3556;53.500;10.176;2023-06-26T09:10:52;9.80;;;8.80;;
7029;SDS011;3556;53.500;10.176;2023-06-26T09:13:18;11.13;;;9.13;;
7029;SDS011;3556;53.500;10.176;2023-06-26T09:15:44;13.13;;;9.17;;
7029;SDS011;3556;53.500;10.176;2023-06-26T09:18:10;9.47;;;8.67;;
7029;SDS011;3556;53.500;10.176;2023-06-26T09:20:36;9.63;;;8.70;;
7029;SDS011;3556;53.500;10.176;2023-06-26T09:23:02;12.23;;;9.83;;
7029;SDS011;3556;53.500;10.176;2023-06-26T09:25:28;10.20;;;8.87;;
7029;SDS011;3556;53.500;10.176;2023-06-26T09:27:54;10.90;;;8.83;;
7029;SDS011;3556;53.500;10.176;2023-06-26T09:30:20;10.53;;;9.53;;
7029;SDS011;3556;53.500;10.176;2023-06-26T09:32:46;10.60;;;9.70;;
7029;SDS011;3556;53.500;10.176;2023-06-26T09:35:12;11.27;;;10.17;;
7029;SDS011;3556;53.500;10.176;2023-06-26T09:37:38;12.27;;;11.17;;
7029;SDS011;3556;53.500;10.176;2023-06-26T09:40:05;15.60;;;11.30;;
7029;SDS011;3556;53.500;10.176;2023-06-26T09:42:32;23.10;;;11.87;;
7029;SDS011;3556;53.500;10.176;2023-06-26T09:44:57;13.50;;;11.60;;
7029;SDS011;3556;53.500;10.176;2023-06-26T09:47:23;14.80;;;11.83;;
7029;SDS011;3556;53.500;10.176;2023-06-26T09:49:49;16.10;;;13.00;;
7029;SDS011;3556;53.500;10.176;2023-06-26T09:52:16;21.20;;;12.50;;
7029;SDS011;3556;53.500;10.176;2023-06-26T09:54:43;14.13;;;11.90;;
7029;SDS011;3556;53.500;10.176;2023-06-26T09:57:13;15.80;;;12.90;;
7029;SDS011;3556;53.500;10.176;2023-06-26T09:59:43;14.47;;;11.80;;
7029;SDS011;3556;53.500;10.176;2023-06-26T10:02:10;14.80;;;11.00;;
7029;SDS011;3556;53.500;10.176;2023-06-26T10:04:37;18.93;;;12.37;;
7029;SDS011;3556;53.500;10.176;2023-06-26T10:07:06;16.90;;;12.43;;
7029;SDS011;3556;53.500;10.176;2023-06-26T10:09:36;20.30;;;11.63;;
7029;SDS011;3556;53.500;10.176;2023-06-26T10:12:06;18.40;;;12.63;;
7029;SDS011;3556;53.500;10.176;2023-06-26T10:14:37;23.73;;;11.90;;
7029;SDS011;3556;53.500;10.176;2023-06-26T10:17:08;17.33;;;12.40;;
7029;SDS011;3556;53.500;10.176;2023-06-26T10:19:35;20.33;;;13.10;;
7029;SDS011;3556;53.500;10.176;2023-06-26T10:22:03;13.50;;;12.20;;
7029;SDS011;3556;53.500;10.176;2023-06-26T10:24:30;19.00;;;13.00;;
7029;SDS011;3556;53.500;10.176;2023-06-26T10:27:08;16.37;;;12.50;;
7029;SDS011;3556;53.500;10.176;2023-06-26T10:29:46;18.07;;;14.83;;
7029;SDS011;3556;53.500;10.176;2023-06-26T10:32:15;16.37;;;14.67;;
7029;SDS011;3556;53.500;10.176;2023-06-26T10:34:42;24.50;;;14.33;;
7029;SDS011;3556;53.500;10.176;2023-06-26T10:37:08;16.70;;;11.83;;
7029;SDS011;3556;53.500;10.176;2023-06-26T10:39:50;23.13;;;13.20;;
7029;SDS011;3556;53.500;10.176;2023-06-26T10:42:19;21.70;;;9.90;;
7029;SDS011;3556;53.500;10.176;2023-06-26T10:44:58;13.70;;;10.20;;
7029;SDS011;3556;53.500;10.176;2023-06-26T10:47:48;11.70;;;9.70;;
7029;SDS011;3556;53.500;10.176;2023-06-26T10:50:24;10.80;;;9.70;;
7029;SDS011;3556;53.500;10.176;2023-06-26T10:55:43;11.20;;;8.50;;
7029;SDS011;3556;53.500;10.176;2023-06-26T11:01:19;15.03;;;8.30;;
7029;SDS011;3556;53.500;10.176;2023-06-26T11:06:20;11.13;;;9.23;;
7029;SDS011;3556;53.500;10.176;2023-06-26T11:08:50;18.17;;;10.80;;
7029;SDS011;3556;53.500;10.176;2023-06-26T11:11:18;17.27;;;10.03;;
7029;SDS011;3556;53.500;10.176;2023-06-26T11:13:45;12.30;;;10.53;;
7029;SDS011;3556;53.500;10.176;2023-06-26T11:16:12;13.60;;;10.03;;
7029;SDS011;3556;53.500;10.176;2023-06-26T11:18:38;18.67;;;10.50;;
7029;SDS011;3556;53.500;10.176;2023-06-26T11:21:11;17.27;;;10.53;;
7029;SDS011;3556;53.500;10.176;2023-06-26T11:23:39;12.73;;;10.00;;
7029;SDS011;3556;53.500;10.176;2023-06-26T11:26:20;13.90;;;10.40;;
7029;SDS011;3556;53.500;10.176;2023-06-26T11:28:56;11.00;;;9.87;;
7029;SDS011;3556;53.500;10.176;2023-06-26T11:34:00;19.50;;;10.13;;
7029;SDS011;3556;53.500;10.176;2023-06-26T11:36:29;12.77;;;9.50;;
7029;SDS011;3556;53.500;10.176;2023-06-26T11:38:56;13.27;;;8.60;;
7029;SDS011;3556;53.500;10.176;2023-06-26T11:41:23;12.90;;;7.70;;
7029;SDS011;3556;53.500;10.176;2023-06-26T11:43:51;12.37;;;7.30;;
7029;SDS011;3556;53.500;10.176;2023-06-26T11:46:18;14.70;;;7.57;;
7029;SDS011;3556;53.500;10.176;2023-06-26T11:48:45;18.67;;;7.80;;
7029;SDS011;3556;53.500;10.176;2023-06-26T11:51:14;13.20;;;7.13;;
7029;SDS011;3556;53.500;10.176;2023-06-26T11:53:41;12.70;;;6.57;;
7029;SDS011;3556;53.500;10.176;2023-06-26T11:56:08;12.23;;;7.00;;
7029;SDS011;3556;53.500;10.176;2023-06-26T11:58:35;11.33;;;6.40;;
7029;SDS011;3556;53.500;10.176;2023-06-26T12:01:01;13.03;;;5.97;;
7029;SDS011;3556;53.500;10.176;2023-06-26T12:03:27;14.93;;;5.43;;
7029;SDS011;3556;53.500;10.176;2023-06-26T12:05:54;11.37;;;5.13;;
7029;SDS011;3556;53.500;10.176;2023-06-26T12:08:21;9.23;;;4.73;;
7029;SDS011;3556;53.500;10.176;2023-06-26T12:10:47;9.87;;;4.27;;
7029;SDS011;3556;53.500;10.176;2023-06-26T12:13:12;10.20;;;4.53;;
7029;SDS011;3556;53.500;10.176;2023-06-26T12:15:38;4.63;;;4.03;;
7029;SDS011;3556;53.500;10.176;2023-06-26T12:18:10;9.10;;;3.93;;
7029;SDS011;3556;53.500;10.176;2023-06-26T12:20:39;12.30;;;4.00;;
7029;SDS011;3556;53.500;10.176;2023-06-26T12:23:11;4.70;;;3.07;;
7029;SDS011;3556;53.500;10.176;2023-06-26T12:25:37;6.80;;;4.00;;
7029;SDS011;3556;53.500;10.176;2023-06-26T12:28:03;10.97;;;3.80;;
7029;SDS011;3556;53.500;10.176;2023-06-26T12:30:39;7.27;;;3.17;;
7029;SDS011;3556;53.500;10.176;2023-06-26T12:33:12;10.60;;;3.50;;
7029;SDS011;3556;53.500;10.176;2023-06-26T12:35:38;8.70;;;2.90;;
7029;SDS011;3556;53.500;10.176;2023-06-26T12:38:07;6.83;;;2.90;;
7029;SDS011;3556;53.500;10.176;2023-06-26T12:40:35;6.47;;;3.10;;
7029;SDS011;3556;53.500;10.176;2023-06-26T12:43:11;6.03;;;2.97;;
7029;SDS011;3556;53.500;10.176;2023-06-26T12:45:40;21.50;;;2.83;;
7029;SDS011;3556;53.500;10.176;2023-06-26T12:48:06;8.33;;;3.33;;
7029;SDS011;3556;53.500;10.176;2023-06-26T12:50:45;6.80;;;2.90;;
7029;SDS011;3556;53.500;10.176;2023-06-26T12:53:10;7.63;;;2.97;;
7029;SDS011;3556;53.500;10.176;2023-06-26T12:55:36;2.87;;;2.60;;
7029;SDS011;3556;53.500;10.176;2023-06-26T12:58:02;6.30;;;2.80;;
7029;SDS011;3556;53.500;10.176;2023-06-26T13:00:27;10.50;;;2.97;;
7029;SDS011;3556;53.500;10.176;2023-06-26T13:02:53;7.87;;;2.60;;
7029;SDS011;3556;53.500;10.176;2023-06-26T13:05:18;8.23;;;2.80;;
7029;SDS011;3556;53.500;10.176;2023-06-26T13:07:44;10.27;;;2.43;;
7029;SDS011;3556;53.500;10.176;2023-06-26T13:10:10;5.33;;;2.70;;
7029;SDS011;3556;53.500;10.176;2023-06-26T13:12:35;7.30;;;3.07;;
7029;SDS011;3556;53.500;10.176;2023-06-26T13:15:01;8.97;;;2.90;;
7029;SDS011;3556;53.500;10.176;2023-06-26T13:17:27;7.17;;;2.87;;
7029;SDS011;3556;53.500;10.176;2023-06-26T13:19:52;7.77;;;3.00;;
7029;SDS011;3556;53.500;10.176;2023-06-26T13:22:18;6.10;;;3.10;;
7029;SDS011;3556;53.500;10.176;2023-06-26T13:24:43;8.73;;;2.70;;
7029;SDS011;3556;53.500;10.176;2023-06-26T13:27:09;10.00;;;2.87;;
7029;SDS011;3556;53.500;10.176;2023-06-26T13:29:34;5.57;;;2.53;;
7029;SDS011;3556;53.500;10.176;2023-06-26T13:32:00;6.00;;;2.60;;
7029;SDS011;3556;53.500;10.176;2023-06-26T13:34:27;3.70;;;2.30;;
7029;SDS011;3556;53.500;10.176;2023-06-26T13:36:53;6.30;;;2.30;;
7029;SDS011;3556;53.500;10.176;2023-06-26T13:39:19;2.87;;;2.37;;
7029;SDS011;3556;53.500;10.176;2023-06-26T13:41:45;3.50;;;2.20;;
7029;SDS011;3556;53.500;10.176;2023-06-26T13:44:11;4.87;;;2.17;;
7029;SDS011;3556;53.500;10.176;2023-06-26T13:46:36;9.63;;;2.73;;
7029;SDS011;3556;53.500;10.176;2023-06-26T13:49:02;5.60;;;2.50;;
7029;SDS011;3556;53.500;10.176;2023-06-26T13:51:28;6.20;;;2.60;;
7029;SDS011;3556;53.500;10.176;2023-06-26T13:53:53;2.90;;;2.00;;
7029;SDS011;3556;53.500;10.176;2023-06-26T13:56:20;4.77;;;2.43;;
7029;SDS011;3556;53.500;10.176;2023-06-26T13:58:47;3.17;;;2.13;;
7029;SDS011;3556;53.500;10.176;2023-06-26T14:01:13;8.73;;;2.20;;
7029;SDS011;3556;53.500;10.176;2023-06-26T14:03:39;11.13;;;2.10;;
7029;SDS011;3556;53.500;10.176;2023-06-26T14:06:05;13.40;;;2.30;;
7029;SDS011;3556;53.500;10.176;2023-06-26T14:08:30;4.80;;;2.10;;
7029;SDS011;3556;53.500;10.176;2023-06-26T14:10:56;4.10;;;2.20;;
7029;SDS011;3556;53.500;10.176;2023-06-26T14:13:23;6.87;;;2.13;;
7029;SDS011;3556;53.500;10.176;2023-06-26T14:15:49;7.73;;;2.17;;
7029;SDS011;3556;53.500;10.176;2023-06-26T14:18:17;3.10;;;1.90;;
7029;SDS011;3556;53.500;10.176;2023-06-26T14:20:43;5.10;;;2.60;;
7029;SDS011;3556;53.500;10.176;2023-06-26T14:23:09;6.43;;;2.20;;
7029;SDS011;3556;53.500;10.176;2023-06-26T14:25:34;6.50;;;2.20;;
7029;SDS011;3556;53.500;10.176;2023-06-26T14:28:01;7.20;;;2.17;;
7029;SDS011;3556;53.500;10.176;2023-06-26T14:30:26;6.47;;;2.43;;
7029;SDS011;3556;53.500;10.176;2023-06-26T14:32:52;3.37;;;2.27;;
7029;SDS011;3556;53.500;10.176;2023-06-26T14:35:17;3.20;;;2.10;;
7029;SDS011;3556;53.500;10.176;2023-06-26T14:37:43;3.67;;;1.93;;
7029;SDS011;3556;53.500;10.176;2023-06-26T14:40:09;2.20;;;2.00;;
7029;SDS011;3556;53.500;10.176;2023-06-26T14:42:35;3.83;;;1.90;;
7029;SDS011;3556;53.500;10.176;2023-06-26T14:45:01;5.60;;;2.20;;
7029;SDS011;3556;53.500;10.176;2023-06-26T14:47:27;3.70;;;1.90;;
7029;SDS011;3556;53.500;10.176;2023-06-26T14:49:52;2.30;;;2.10;;
7029;SDS011;3556;53.500;10.176;2023-06-26T14:52:18;12.83;;;1.90;;
7029;SDS011;3556;53.500;10.176;2023-06-26T14:54:43;5.73;;;1.80;;
7029;SDS011;3556;53.500;10.176;2023-06-26T14:57:09;4.40;;;2.10;;
7029;SDS011;3556;53.500;10.176;2023-06-26T14:59:35;3.37;;;1.90;;
7029;SDS011;3556;53.500;10.176;2023-06-26T15:02:01;7.90;;;2.50;;
7029;SDS011;3556;53.500;10.176;2023-06-26T15:04:27;3.80;;;1.70;;
7029;SDS011;3556;53.500;10.176;2023-06-26T15:06:52;6.30;;;1.73;;